Time;durP1;ratioP1;P1;durP2;ratioP2;P2;SDS_P1;SDS_P2;PMS_P1;PMS_P2;Temp;Humidity;BMP_temperature;BMP_pressure;BME280_temperature;BME280_humidity;BME280_pressure;Samples;Min_cycle;Max_cycle;Signal;HPM_P1;HPM_P2
2022/09/16 00:01:47;;;;;;;21.95;19.12;;;;;;;15.24;88.70;99273.24;1736009;82;21213;-54
2022/09/16 00:04:54;;;;;;;22.05;19.73;;;;;;;15.20;88.73;99269.28;1736016;82;21269;-54
2022/09/16 00:08:01;;;;;;;20.50;18.40;;;;;;;15.18;88.71;99263.67;1743017;79;21217;-54
2022/09/16 00:11:09;;;;;;;21.95;17.10;;;;;;;15.15;88.71;99261.39;1748704;82;21184;-55
2022/09/16 00:14:18;;;;;;;21.42;17.95;;;;;;;15.11;88.69;99246.41;1748907;80;21725;-54
2022/09/16 00:17:24;;;;;;;22.07;18.95;;;;;;;15.11;88.77;99243.09;1748644;82;21264;-54
2022/09/16 00:20:30;;;;;;;20.52;17.60;;;;;;;15.10;88.85;99248.30;1751836;81;21553;-54
2022/09/16 00:23:37;;;;;;;19.35;16.85;;;;;;;15.12;88.99;99252.20;1749055;80;21288;-53
2022/09/16 00:26:43;;;;;;;21.10;17.35;;;;;;;15.12;89.05;99249.45;1748794;82;21208;-54
2022/09/16 00:29:49;;;;;;;21.33;16.37;;;;;;;15.16;89.21;99258.95;1749022;80;21303;-55
2022/09/16 00:32:55;;;;;;;24.87;17.65;;;;;;;15.21;89.29;99253.03;1729913;80;21276;-55
2022/09/16 00:36:11;;;;;;;20.50;16.95;;;;;;;15.23;89.32;99246.76;1748427;82;21219;-55
2022/09/16 00:39:16;;;;;;;22.42;17.60;;;;;;;15.27;89.41;99249.34;1748780;80;21256;-55
2022/09/16 00:42:22;;;;;;;21.55;17.10;;;;;;;15.32;89.50;99252.23;1769680;81;21195;-55
2022/09/16 00:45:31;;;;;;;24.90;17.37;;;;;;;15.35;89.57;99246.25;1748844;82;21225;-55
2022/09/16 00:48:38;;;;;;;21.12;17.32;;;;;;;15.38;89.65;99231.17;1748803;80;21224;-55
2022/09/16 00:51:46;;;;;;;24.37;17.30;;;;;;;15.39;89.71;99240.63;1769786;81;21257;-55
2022/09/16 00:54:53;;;;;;;23.00;18.25;;;;;;;15.41;89.78;99242.62;1749033;80;21224;-55
2022/09/16 00:58:00;;;;;;;21.20;17.62;;;;;;;15.46;89.86;99249.62;1748760;80;21228;-55
2022/09/16 01:01:06;;;;;;;20.80;17.55;;;;;;;15.51;89.96;99248.38;1769694;81;21183;-54
2022/09/16 01:04:15;;;;;;;23.67;17.65;;;;;;;15.56;90.03;99243.01;1748960;80;21283;-55
2022/09/16 01:07:21;;;;;;;23.07;17.80;;;;;;;15.62;90.10;99253.66;1748754;82;21189;-56
2022/09/16 01:10:30;;;;;;;25.55;18.30;;;;;;;15.66;90.14;99257.08;1745561;81;21766;-55
2022/09/16 01:13:36;;;;;;;21.23;17.67;;;;;;;15.68;90.18;99260.42;1761624;81;21257;-55
2022/09/16 01:16:44;;;;;;;27.93;17.57;;;;;;;15.71;90.20;99250.32;1761639;81;21262;-56
2022/09/16 01:20:28;;;;;;;21.50;17.45;;;;;;;15.75;90.23;99253.42;1761727;81;21258;-56
2022/09/16 01:23:55;;;;;;;20.45;17.35;;;;;;;15.77;90.26;99259.03;1761810;81;21222;-55
2022/09/16 01:27:19;;;;;;;20.88;18.05;;;;;;;15.83;90.35;99262.74;1757946;81;21187;-55
2022/09/16 01:31:00;;;;;;;24.05;17.73;;;;;;;15.85;90.39;99254.55;1757581;81;21238;-55
2022/09/16 01:34:16;;;;;;;18.35;15.83;;;;;;;15.88;90.43;99236.13;1761825;81;21214;-54
2022/09/16 01:37:41;;;;;;;22.77;17.50;;;;;;;15.89;90.47;99239.70;1762040;81;21273;-55
2022/09/16 01:41:08;;;;;;;18.65;16.42;;;;;;;15.92;90.51;99238.70;1762230;81;21222;-56
2022/09/16 01:44:33;;;;;;;20.08;17.40;;;;;;;15.94;90.54;99239.31;1761698;81;21207;-55
2022/09/16 01:48:11;;;;;;;20.48;18.30;;;;;;;15.97;90.58;99247.11;1761789;81;21207;-54
2022/09/16 01:51:30;;;;;;;20.68;17.20;;;;;;;15.99;90.64;99250.48;1761819;81;21261;-53
2022/09/16 01:54:49;;;;;;;21.07;18.42;;;;;;;16.01;90.71;99248.34;1761667;81;21253;-54
2022/09/16 01:58:05;;;;;;;21.07;17.48;;;;;;;16.03;90.75;99248.91;1761692;81;21246;-56
2022/09/16 02:01:25;;;;;;;21.80;18.23;;;;;;;16.07;90.78;99251.52;1762375;81;21316;-54
2022/09/16 02:04:39;;;;;;;21.68;19.42;;;;;;;16.07;90.79;99246.00;1763004;81;21222;-56
2022/09/16 02:07:48;;;;;;;23.10;19.95;;;;;;;16.08;90.81;99242.14;1761737;81;21226;-56
2022/09/16 02:11:00;;;;;;;22.00;19.45;;;;;;;16.10;90.85;99251.56;1765073;81;21281;-56
2022/09/16 02:14:28;;;;;;;19.95;17.73;;;;;;;16.11;90.87;99251.33;1736190;81;21280;-55
2022/09/16 02:17:35;;;;;;;19.27;17.27;;;;;;;16.12;90.88;99241.98;1736173;81;21780;-54
2022/09/16 02:20:45;;;;;;;18.70;16.90;;;;;;;16.14;90.91;99239.80;1736250;82;21201;-55
2022/09/16 02:23:56;;;;;;;19.67;17.40;;;;;;;16.15;90.92;99240.66;1736158;81;21297;-56
2022/09/16 02:27:07;;;;;;;18.80;16.52;;;;;;;16.16;90.93;99246.46;1736120;82;21374;-56
2022/09/16 02:30:15;;;;;;;20.75;17.20;;;;;;;16.17;90.93;99238.50;1719156;82;21257;-55
2022/09/16 02:33:22;;;;;;;21.15;17.15;;;;;;;16.17;90.94;99240.70;1736059;81;21229;-55
2022/09/16 02:36:30;;;;;;;20.62;17.60;;;;;;;16.16;90.92;99241.80;1736284;82;21367;-55
2022/09/16 02:39:38;;;;;;;19.62;17.45;;;;;;;16.16;90.94;99252.83;1715341;83;21248;-54
2022/09/16 02:42:45;;;;;;;25.12;21.93;;;;;;;16.17;90.94;99262.79;1715376;83;21244;-54
2022/09/16 02:46:16;;;;;;;25.90;23.22;;;;;;;16.18;90.95;99260.34;1714760;83;21213;-53
2022/09/16 02:49:48;;;;;;;26.87;23.85;;;;;;;16.17;90.95;99248.98;1696659;83;21246;-54
2022/09/16 02:53:10;;;;;;;26.35;23.47;;;;;;;16.18;90.97;99245.16;1717021;82;21273;-54
2022/09/16 02:56:40;;;;;;;29.20;25.92;;;;;;;16.17;90.95;99231.03;1718899;82;21229;-54
2022/09/16 02:59:45;;;;;;;26.37;22.70;;;;;;;16.16;90.98;99234.89;1736156;82;21241;-54
2022/09/16 03:02:52;;;;;;;23.95;21.02;;;;;;;16.18;90.99;99233.27;1734829;82;21236;-53
2022/09/16 03:06:21;;;;;;;24.27;20.72;;;;;;;16.19;91.00;99229.41;1736085;81;21185;-54
2022/09/16 03:09:28;;;;;;;21.95;19.15;;;;;;;16.20;91.02;99233.88;1735407;82;21214;-54
2022/09/16 03:12:56;;;;;;;22.05;19.73;;;;;;;16.21;91.05;99237.78;1741863;82;21205;-54
2022/09/16 03:16:19;;;;;;;24.77;18.80;;;;;;;16.22;91.01;99247.73;1742271;82;21701;-54
2022/09/16 03:19:59;;;;;;;23.12;19.85;;;;;;;16.23;90.96;99244.44;1743394;81;21197;-54
2022/09/16 03:23:34;;;;;;;21.97;19.42;;;;;;;16.22;90.94;99246.34;1764045;81;21294;-55
2022/09/16 03:26:53;;;;;;;21.15;19.02;;;;;;;16.23;90.94;99256.33;1764046;81;21234;-55
2022/09/16 03:30:11;;;;;;;30.48;23.10;;;;;;;16.22;90.95;99265.68;1737246;82;21208;-54
2022/09/16 03:33:55;;;;;;;27.62;24.72;;;;;;;16.22;91.01;99262.92;1748738;81;21360;-54
2022/09/16 03:37:15;;;;;;;31.37;27.73;;;;;;;16.20;91.03;99262.34;1761648;81;21882;-54
2022/09/16 03:40:23;;;;;;;30.52;27.17;;;;;;;16.18;91.07;99264.48;1742943;82;21249;-54
2022/09/16 03:43:30;;;;;;;30.00;26.50;;;;;;;16.17;91.07;99255.06;1743238;81;21205;-53
2022/09/16 03:46:36;;;;;;;30.40;26.05;;;;;;;16.18;91.07;99248.45;1743354;82;21201;-54
2022/09/16 03:49:43;;;;;;;29.42;24.20;;;;;;;16.20;91.09;99252.67;1743333;81;21240;-54
2022/09/16 03:52:51;;;;;;;28.07;23.10;;;;;;;16.22;91.10;99246.91;1743365;81;21249;-55
2022/09/16 03:55:58;;;;;;;27.73;24.65;;;;;;;16.23;91.13;99246.67;1721717;82;21169;-55
2022/09/16 03:59:06;;;;;;;29.00;24.65;;;;;;;16.25;91.16;99252.77;1743043;81;21287;-54
2022/09/16 04:02:12;;;;;;;29.23;24.43;;;;;;;16.28;91.16;99249.52;1743336;82;21229;-56
2022/09/16 04:05:19;;;;;;;30.20;23.98;;;;;;;16.30;91.17;99251.52;1743255;82;21201;-53
2022/09/16 04:08:25;;;;;;;29.45;26.25;;;;;;;16.33;91.19;99251.03;1743296;81;21769;-55
2022/09/16 04:11:33;;;;;;;32.60;28.80;;;;;;;16.38;91.23;99258.06;1744751;79;21188;-55
2022/09/16 04:14:41;;;;;;;35.52;29.80;;;;;;;16.41;91.23;99265.05;1763984;81;21242;-55
2022/09/16 04:17:47;;;;;;;33.67;28.32;;;;;;;16.43;91.24;99263.71;1743269;81;21257;-54
2022/09/16 04:20:53;;;;;;;30.02;26.75;;;;;;;16.48;91.25;99267.69;1743295;82;21193;-54
2022/09/16 04:23:59;;;;;;;30.48;24.87;;;;;;;16.50;91.24;99265.53;1764081;81;21344;-53
2022/09/16 04:27:06;;;;;;;27.82;24.70;;;;;;;16.53;91.25;99261.75;1724833;82;21252;-54
2022/09/16 04:30:14;;;;;;;29.75;24.23;;;;;;;16.57;91.26;99263.50;1743293;82;21177;-54
2022/09/16 04:33:20;;;;;;;27.70;24.70;;;;;;;16.60;91.26;99263.02;1743209;81;21212;-54
2022/09/16 04:36:27;;;;;;;27.58;24.67;;;;;;;16.61;91.25;99268.83;1743271;82;21201;-55
2022/09/16 04:39:35;;;;;;;28.07;25.15;;;;;;;16.62;91.29;99264.45;1742940;81;21317;-55
2022/09/16 04:42:41;;;;;;;28.35;25.25;;;;;;;16.65;91.32;99265.90;1736852;81;21240;-53
2022/09/16 04:45:47;;;;;;;28.50;25.40;;;;;;;16.69;91.32;99267.08;1733739;83;21273;-54
2022/09/16 04:49:00;;;;;;;30.10;23.83;;;;;;;16.70;91.32;99268.78;1734075;82;21236;-54
2022/09/16 04:52:05;;;;;;;29.50;24.85;;;;;;;16.71;91.33;99262.16;1735912;82;21173;-55
2022/09/16 04:55:12;;;;;;;32.83;24.85;;;;;;;16.73;91.32;99264.97;1737276;82;21233;-55
2022/09/16 04:58:20;;;;;;;27.70;23.98;;;;;;;16.75;91.35;99275.78;1716446;83;21222;-54
2022/09/16 05:01:28;;;;;;;30.80;25.92;;;;;;;16.77;91.36;99268.95;1742900;82;21185;-54
2022/09/16 05:04:36;;;;;;;32.33;26.12;;;;;;;16.79;91.39;99272.28;1740476;80;21219;-54
2022/09/16 05:07:44;;;;;;;30.70;26.90;;;;;;;16.83;91.42;99279.55;1711963;83;21212;-52
2022/09/16 05:10:51;;;;;;;29.15;25.10;;;;;;;16.86;91.45;99277.16;1711830;84;21233;-52
2022/09/16 05:13:58;;;;;;;27.75;24.37;;;;;;;16.90;91.46;99285.27;1701960;82;21213;-52
2022/09/16 05:17:06;;;;;;;26.60;23.05;;;;;;;16.93;91.41;99290.84;1694560;84;21233;-51
2022/09/16 05:20:14;;;;;;;28.00;23.25;;;;;;;16.95;91.48;99285.36;1702025;83;21229;-52
2022/09/16 05:23:20;;;;;;;32.95;25.32;;;;;;;16.98;91.46;99285.44;1723211;83;21745;-53
2022/09/16 05:26:34;;;;;;;28.25;22.90;;;;;;;16.99;91.50;99294.02;1723779;83;21213;-53
2022/09/16 05:29:42;;;;;;;29.00;23.90;;;;;;;17.00;91.50;99290.19;1704966;82;21237;-53
2022/09/16 05:32:49;;;;;;;30.10;25.97;;;;;;;17.01;91.48;99289.94;1701580;84;21710;-53
2022/09/16 05:35:55;;;;;;;42.13;33.10;;;;;;;17.03;91.53;99289.70;1709910;83;21198;-53
2022/09/16 05:39:00;;;;;;;30.08;24.12;;;;;;;17.06;91.53;99292.78;1702640;83;21821;-54
2022/09/16 05:42:08;;;;;;;29.80;26.37;;;;;;;17.09;91.56;99295.62;1706313;84;21331;-53
2022/09/16 05:45:16;;;;;;;29.82;25.12;;;;;;;17.12;91.59;99289.61;1705820;84;21272;-53
2022/09/16 05:48:24;;;;;;;34.23;25.90;;;;;;;17.16;91.58;99294.92;1690720;84;21288;-52
2022/09/16 05:51:30;;;;;;;35.17;30.88;;;;;;;17.19;91.64;99291.14;1708735;84;21183;-53
2022/09/16 05:54:36;;;;;;;29.02;25.60;;;;;;;17.25;91.70;99291.53;1707964;84;21298;-53
2022/09/16 05:57:43;;;;;;;26.62;22.52;;;;;;;17.32;91.66;99293.63;1709320;84;21180;-51
2022/09/16 06:00:49;;;;;;;28.12;23.60;;;;;;;17.37;91.66;99305.34;1710390;83;21226;-51
2022/09/16 06:03:56;;;;;;;25.85;22.42;;;;;;;17.39;91.63;99296.26;1704364;84;21253;-53
2022/09/16 06:07:04;;;;;;;25.65;22.40;;;;;;;17.41;91.66;99294.09;1704629;84;21786;-54
2022/09/16 06:10:08;;;;;;;25.85;22.93;;;;;;;17.43;91.70;99298.28;1710123;82;21528;-54
2022/09/16 06:13:14;;;;;;;25.40;22.70;;;;;;;17.49;91.78;99295.94;1723927;81;21226;-54
2022/09/16 06:16:19;;;;;;;25.55;21.55;;;;;;;17.55;91.82;99297.71;1760066;81;21182;-53
2022/09/16 06:19:31;;;;;;;24.95;21.93;;;;;;;17.62;91.82;99287.88;1752589;81;21234;-54
2022/09/16 06:22:38;;;;;;;26.23;21.17;;;;;;;17.68;91.80;99293.80;1737832;81;21469;-54
2022/09/16 06:25:43;;;;;;;23.77;21.17;;;;;;;17.76;91.86;99294.78;1763869;81;21201;-51
2022/09/16 06:28:51;;;;;;;23.05;20.57;;;;;;;17.88;91.91;99281.73;1762890;80;21523;-51
2022/09/16 06:31:57;;;;;;;23.65;21.12;;;;;;;17.99;91.90;99281.36;1762243;80;21197;-51
2022/09/16 06:35:03;;;;;;;22.70;20.23;;;;;;;18.10;91.86;99288.22;1695311;84;21269;-52
2022/09/16 06:38:09;;;;;;;27.40;22.37;;;;;;;18.25;91.84;99294.57;1697077;83;21269;-52
2022/09/16 06:41:17;;;;;;;23.60;19.90;;;;;;;18.30;91.76;99295.48;1705140;83;21217;-53
2022/09/16 06:44:23;;;;;;;21.05;18.85;;;;;;;18.34;91.66;99306.37;1711828;84;21792;-51
2022/09/16 06:47:32;;;;;;;23.00;20.40;;;;;;;18.37;91.56;99310.55;1670020;83;21308;-52
2022/09/16 06:50:37;;;;;;;21.93;19.67;;;;;;;18.44;91.65;99303.77;1719344;82;21214;-52
2022/09/16 06:53:47;;;;;;;23.57;19.05;;;;;;;18.49;91.55;99302.47;1723290;83;21239;-53
2022/09/16 06:56:57;;;;;;;21.40;18.77;;;;;;;18.57;91.54;99309.52;1723719;82;21526;-55
2022/09/16 07:00:06;;;;;;;22.85;20.57;;;;;;;18.64;91.52;99303.27;1725359;82;21576;-53
2022/09/16 07:03:13;;;;;;;21.17;18.92;;;;;;;18.69;91.48;99304.20;1776123;81;21200;-55
2022/09/16 07:06:20;;;;;;;26.20;20.95;;;;;;;18.71;91.40;99312.26;1749398;81;21237;-54
2022/09/16 07:09:31;;;;;;;30.72;24.35;;;;;;;18.65;91.26;99312.71;1737320;81;21207;-54
2022/09/16 07:12:38;;;;;;;25.27;21.15;;;;;;;18.65;91.31;99304.93;1733414;81;21355;-54
2022/09/16 07:15:45;;;;;;;20.48;18.05;;;;;;;18.67;91.34;99304.98;1733984;82;21268;-54
2022/09/16 07:18:53;;;;;;;20.68;17.80;;;;;;;18.74;91.44;99304.81;1740696;81;22082;-53
2022/09/16 07:22:01;;;;;;;21.35;18.27;;;;;;;18.83;91.49;99306.89;1740969;82;21240;-53
2022/09/16 07:25:11;;;;;;;21.40;18.77;;;;;;;18.90;91.46;99302.56;1740340;82;21240;-53
2022/09/16 07:28:17;;;;;;;19.27;16.07;;;;;;;18.94;91.49;99306.48;1740618;81;21233;-54
2022/09/16 07:31:31;;;;;;;17.27;15.45;;;;;;;18.94;91.33;99307.87;1740812;82;21769;-53
2022/09/16 07:34:40;;;;;;;18.55;16.65;;;;;;;18.92;91.28;99310.05;1722070;82;21228;-55
2022/09/16 07:37:46;;;;;;;19.23;16.35;;;;;;;18.90;91.28;99311.69;1740814;81;21355;-54
2022/09/16 07:40:53;;;;;;;18.15;16.35;;;;;;;18.92;91.34;99315.06;1680150;84;21383;-54
2022/09/16 07:44:01;;;;;;;16.73;14.95;;;;;;;18.97;91.41;99313.75;1711547;84;21249;-53
2022/09/16 07:47:08;;;;;;;16.75;14.93;;;;;;;19.03;91.37;99314.64;1681764;85;21362;-54
2022/09/16 07:50:17;;;;;;;19.10;16.60;;;;;;;19.09;91.42;99323.36;1711980;84;21232;-53
2022/09/16 07:53:26;;;;;;;16.15;13.60;;;;;;;19.13;91.30;99327.28;1686580;82;21183;-51
2022/09/16 07:56:36;;;;;;;15.32;13.83;;;;;;;19.11;91.23;99320.60;1705804;84;21234;-52
2022/09/16 07:59:46;;;;;;;;;;;;;;;19.12;91.23;99327.82;1760261;81;21209;-51
2022/09/16 08:02:56;;;;;;;13.62;11.78;;;;;;;19.07;91.09;99327.77;1767938;81;20530;-49
2022/09/16 08:06:16;;;;;;;14.38;12.90;;;;;;;19.04;91.16;99335.77;1743619;82;21217;-53
2022/09/16 08:09:25;;;;;;;14.07;12.68;;;;;;;19.01;91.20;99335.70;1736262;82;21274;-51
2022/09/16 08:12:35;;;;;;;15.30;12.75;;;;;;;19.02;91.18;99329.63;1723400;82;21355;-53
2022/09/16 08:15:41;;;;;;;12.93;11.57;;;;;;;18.98;91.14;99340.38;1712165;84;21240;-52
2022/09/16 08:18:58;;;;;;;14.55;13.15;;;;;;;18.92;91.08;99333.09;1697039;84;21375;-50
2022/09/16 08:22:08;;;;;;;13.95;12.37;;;;;;;18.84;91.08;99328.52;1715255;83;21694;-49
2022/09/16 08:25:14;;;;;;;16.62;15.03;;;;;;;18.80;91.10;99326.82;1663233;85;21200;-50
2022/09/16 08:28:23;;;;;;;30.35;24.55;;;;;;;18.80;91.24;99340.69;1681574;85;21293;-50
2022/09/16 08:31:31;;;;;;;18.42;16.52;;;;;;;18.78;91.29;99340.09;1681071;85;22077;-50
2022/09/16 08:34:38;;;;;;;14.05;12.65;;;;;;;18.72;91.21;99332.80;1693027;84;21237;-50
2022/09/16 08:37:46;;;;;;;15.85;14.30;;;;;;;18.67;91.22;99323.01;1694272;84;21190;-50
2022/09/16 08:40:52;;;;;;;15.25;13.80;;;;;;;18.64;91.13;99326.83;1695547;84;21226;-50
2022/09/16 08:44:46;;;;;;;20.05;12.82;;;;;;;18.62;91.10;99329.86;1695050;84;21257;-50
2022/09/16 08:48:14;;;;;;;15.45;13.43;;;;;;;18.60;91.21;99323.72;1694528;84;21611;-51
2022/09/16 08:51:27;;;;;;;14.78;13.28;;;;;;;18.62;91.25;99316.53;1682591;85;21206;-50
2022/09/16 08:54:57;;;;;;;14.70;13.10;;;;;;;18.61;91.22;99319.87;1657573;86;21243;-53
2022/09/16 08:58:24;;;;;;;18.30;13.40;;;;;;;18.63;91.35;99323.20;1697261;83;21249;-51
2022/09/16 09:02:15;;;;;;;13.90;12.60;;;;;;;18.64;91.38;99339.30;1700170;82;21773;-52
2022/09/16 09:05:26;;;;;;;20.57;18.45;;;;;;;18.63;91.42;99327.36;1680480;85;21295;-52
2022/09/16 09:08:50;;;;;;;14.95;12.88;;;;;;;18.62;91.38;99336.78;1680066;85;21268;-55
2022/09/16 09:12:18;;;;;;;13.83;12.50;;;;;;;18.62;91.38;99333.16;1682203;85;21236;-55
2022/09/16 09:15:40;;;;;;;14.20;12.82;;;;;;;18.62;91.26;99337.32;1645321;86;22236;-54
2022/09/16 09:19:25;;;;;;;14.05;12.65;;;;;;;18.55;91.17;99337.48;1699308;80;21999;-56
2022/09/16 09:23:01;;;;;;;9.25;8.35;;;;;;;18.48;91.16;99335.45;1680718;83;21228;-53
2022/09/16 09:26:22;;;;;;;9.10;8.05;;;;;;;18.35;91.05;99333.51;1697807;84;21213;-53
2022/09/16 09:29:56;;;;;;;7.92;7.12;;;;;;;18.26;91.00;99346.95;1704342;84;21244;-53
2022/09/16 09:33:32;;;;;;;10.72;7.72;;;;;;;18.14;90.80;99351.71;1710403;84;21271;-54
2022/09/16 09:37:00;;;;;;;10.25;9.25;;;;;;;18.02;90.64;99362.56;1729440;81;21188;-55
2022/09/16 09:40:35;;;;;;;12.18;10.98;;;;;;;17.86;90.55;99369.73;1709136;83;21179;-53
2022/09/16 09:43:54;;;;;;;13.83;10.70;;;;;;;17.76;90.72;99380.07;1687740;85;21765;-53
2022/09/16 09:47:03;;;;;;;9.73;8.83;;;;;;;17.70;90.80;99376.91;1687047;85;21283;-53
2022/09/16 09:50:34;;;;;;;9.33;8.43;;;;;;;17.64;90.82;99383.97;1687463;85;21799;-53
2022/09/16 09:54:17;;;;;;;10.20;9.18;;;;;;;17.58;90.84;99378.03;1688494;85;21453;-54
2022/09/16 09:57:49;;;;;;;10.82;9.58;;;;;;;17.49;90.84;99370.65;1687661;85;21212;-54
2022/09/16 10:00:57;;;;;;;17.85;15.48;;;;;;;17.41;90.96;99375.15;1687875;85;21291;-55
2022/09/16 10:04:03;;;;;;;14.73;13.00;;;;;;;17.38;90.99;99379.79;1681368;82;21857;-54
2022/09/16 10:07:09;;;;;;;40.43;30.85;;;;;;;17.38;90.90;99392.77;1742211;81;21283;-55
2022/09/16 10:10:25;;;;;;;14.65;12.05;;;;;;;17.35;90.89;99386.34;1727265;81;21221;-54
2022/09/16 10:13:58;;;;;;;18.52;16.50;;;;;;;17.32;90.93;99392.37;1706222;83;21224;-56
2022/09/16 10:17:15;;;;;;;11.65;10.53;;;;;;;17.32;90.92;99391.84;1684462;83;21333;-59
2022/09/16 10:20:39;;;;;;;;;;;;;;;17.34;91.02;99384.67;1717890;79;22032;-56
2022/09/16 10:24:07;;;;;;;11.50;10.10;;;;;;;17.35;91.07;99378.90;1653883;85;20217;-56
2022/09/16 10:27:34;;;;;;;11.48;10.28;;;;;;;17.37;91.11;99379.50;1686998;84;21307;-55
2022/09/16 10:30:59;;;;;;;10.93;9.83;;;;;;;17.43;91.15;99376.28;1703481;84;21265;-55
2022/09/16 10:34:07;;;;;;;14.03;11.43;;;;;;;17.48;91.18;99379.20;1709282;82;21233;-55
2022/09/16 10:37:26;;;;;;;15.60;14.10;;;;;;;17.51;91.12;99380.09;1708491;84;21217;-56
2022/09/16 10:40:33;;;;;;;17.05;13.25;;;;;;;17.54;91.19;99383.75;1708650;84;21995;-55
2022/09/16 10:43:38;;;;;;;15.32;13.40;;;;;;;17.56;91.16;99385.73;1709305;82;21221;-56
2022/09/16 10:50:49;;;;;;;15.98;14.33;;;;;;;17.58;91.08;99388.55;1710925;82;21236;-56
2022/09/16 10:54:12;;;;;;;15.13;13.72;;;;;;;17.59;91.14;99382.47;1682615;83;21280;-53
2022/09/16 10:57:53;;;;;;;14.23;12.43;;;;;;;17.62;91.21;99381.98;1663717;84;21220;-56
2022/09/16 11:01:36;;;;;;;11.40;10.03;;;;;;;17.62;91.17;99386.98;1679037;84;21231;-54
2022/09/16 11:05:56;;;;;;;10.95;9.75;;;;;;;17.59;91.08;99389.39;1660058;85;21235;-55
2022/09/16 11:09:18;;;;;;;7.40;6.60;;;;;;;17.55;91.10;99384.88;1693404;83;21246;-55
2022/09/16 11:12:58;;;;;;;7.80;5.80;;;;;;;17.52;90.94;99374.88;1705169;82;21204;-55
2022/09/16 11:16:43;;;;;;;6.20;5.17;;;;;;;17.52;90.92;99367.95;1703518;84;21338;-55
2022/09/16 11:20:08;;;;;;;12.85;10.98;;;;;;;17.58;90.95;99380.80;1686408;84;21729;-54
2022/09/16 11:24:08;;;;;;;8.03;7.00;;;;;;;17.63;90.73;99387.27;1713905;82;21702;-55
2022/09/16 11:27:33;;;;;;;10.60;7.30;;;;;;;17.65;90.69;99385.64;1689755;82;21709;-54
2022/09/16 11:30:45;;;;;;;8.25;7.45;;;;;;;17.75;90.87;99380.31;1686299;85;21818;-56
2022/09/16 11:34:10;;;;;;;8.33;7.42;;;;;;;17.85;90.85;99381.91;1703334;82;21224;-56
2022/09/16 11:37:33;;;;;;;7.55;6.85;;;;;;;17.97;90.84;99383.23;1704998;84;21200;-54
2022/09/16 11:40:55;;;;;;;11.45;9.93;;;;;;;18.11;90.91;99384.63;1698113;84;21793;-57
2022/09/16 11:44:21;;;;;;;8.65;7.28;;;;;;;18.30;90.70;99381.94;1688101;84;21280;-55
2022/09/16 11:47:52;;;;;;;8.43;6.97;;;;;;;18.40;90.43;99371.89;1691719;83;21283;-56
2022/09/16 11:51:25;;;;;;;8.10;7.33;;;;;;;18.48;90.42;99370.63;1698698;83;21287;-55
2022/09/16 11:55:05;;;;;;;10.82;9.33;;;;;;;18.60;90.61;99372.23;1673160;84;21200;-55
2022/09/16 11:58:18;;;;;;;10.63;8.38;;;;;;;18.75;90.65;99372.48;1704445;83;21244;-55
2022/09/16 12:01:48;;;;;;;8.43;7.62;;;;;;;18.90;90.69;99379.64;1729816;82;21253;-55
2022/09/16 12:05:26;;;;;;;9.78;8.88;;;;;;;19.03;90.66;99379.83;1688070;83;21334;-55
2022/09/16 12:09:07;;;;;;;11.00;9.95;;;;;;;19.19;90.74;99377.04;1675641;83;21321;-57
2022/09/16 12:12:25;;;;;;;12.03;10.82;;;;;;;19.38;90.73;99368.45;1681102;82;21212;-56
2022/09/16 12:15:57;;;;;;;14.53;13.13;;;;;;;19.45;90.49;99374.10;1675020;85;21692;-58
2022/09/16 12:19:35;;;;;;;12.28;10.78;;;;;;;19.65;90.84;99369.34;1682181;83;21236;-56
2022/09/16 12:22:45;;;;;;;12.05;10.85;;;;;;;19.89;90.86;99363.25;1702404;84;21208;-56
2022/09/16 12:26:11;;;;;;;13.50;12.05;;;;;;;20.01;90.85;99361.16;1690171;83;21766;-56
2022/09/16 12:29:41;;;;;;;10.58;9.58;;;;;;;20.02;90.47;99367.02;1678876;85;21280;-56
2022/09/16 12:33:22;;;;;;;12.58;11.35;;;;;;;20.02;90.33;99377.28;1704906;83;21268;-56
2022/09/16 12:36:38;;;;;;;12.75;11.45;;;;;;;20.04;90.21;99377.88;1703287;84;21713;-57
2022/09/16 12:39:44;;;;;;;11.73;10.05;;;;;;;20.12;90.22;99375.44;1674607;85;21240;-56
2022/09/16 12:43:34;;;;;;;12.82;9.65;;;;;;;20.08;89.99;99382.64;1706436;84;22082;-55
2022/09/16 12:47:34;;;;;;;11.35;10.25;;;;;;;19.99;89.80;99379.20;1669550;83;21282;-55
2022/09/16 12:51:00;;;;;;;12.82;8.60;;;;;;;20.02;90.08;99379.52;1625214;85;21781;-56
2022/09/16 12:54:30;;;;;;;9.75;8.85;;;;;;;20.10;90.22;99381.84;1634455;86;21275;-56
2022/09/16 12:58:04;;;;;;;10.03;9.03;;;;;;;20.17;90.35;99385.26;1647535;86;21201;-56
2022/09/16 13:01:33;;;;;;;8.78;7.97;;;;;;;20.20;90.48;99388.91;1642022;86;21231;-56
2022/09/16 13:04:49;;;;;;;8.78;7.87;;;;;;;20.14;90.44;99399.69;1673095;85;21777;-56
2022/09/16 13:07:59;;;;;;;8.90;6.40;;;;;;;19.98;90.27;99390.85;1672117;86;21733;-57
2022/09/16 13:11:12;;;;;;;6.85;6.25;;;;;;;19.88;90.30;99399.63;1659711;86;21173;-56
2022/09/16 13:14:35;;;;;;;11.57;7.83;;;;;;;19.84;90.44;99408.17;1671348;85;21268;-57
2022/09/16 13:17:51;;;;;;;8.48;7.67;;;;;;;19.85;90.64;99406.53;1671747;85;21264;-56
2022/09/16 13:21:06;;;;;;;8.50;7.70;;;;;;;19.82;90.53;99417.34;1645061;85;21222;-57
2022/09/16 13:24:21;;;;;;;8.80;7.90;;;;;;;19.72;90.38;99411.65;1642588;87;21750;-58
2022/09/16 13:27:37;;;;;;;;;;;;;;;19.70;90.47;99415.23;1651073;86;21228;-56
2022/09/16 13:30:44;;;;;;;10.18;8.53;;;;;;;19.72;90.59;99411.65;1665205;85;20262;-57
2022/09/16 13:34:07;;;;;;;9.80;8.08;;;;;;;19.78;90.67;99412.00;1667987;85;21328;-58
2022/09/16 13:37:21;;;;;;;8.58;7.72;;;;;;;19.84;90.65;99413.73;1659668;85;21205;-58
2022/09/16 13:40:33;;;;;;;8.88;7.97;;;;;;;19.88;90.58;99414.91;1643863;87;21257;-57
2022/09/16 13:43:56;;;;;;;8.95;8.08;;;;;;;19.95;90.61;99401.64;1644533;87;21256;-57
2022/09/16 13:47:19;;;;;;;8.95;8.00;;;;;;;20.06;90.64;99404.28;1644187;87;21738;-57
2022/09/16 13:50:33;;;;;;;8.30;7.47;;;;;;;20.12;90.42;99405.20;1665898;84;21260;-57
2022/09/16 13:53:43;;;;;;;7.75;7.05;;;;;;;20.10;90.24;99409.62;1674795;84;21222;-56
2022/09/16 13:57:17;;;;;;;8.93;7.92;;;;;;;20.11;90.26;99404.89;1671113;85;21206;-57
2022/09/16 14:00:46;;;;;;;9.05;7.60;;;;;;;20.13;90.27;99415.20;1667211;85;21233;-57
2022/09/16 14:04:31;;;;;;;9.70;8.38;;;;;;;20.21;90.26;99418.94;1622291;88;21845;-58
2022/09/16 14:08:05;;;;;;;10.10;8.80;;;;;;;20.25;90.08;99414.52;1628603;85;21372;-58
2022/09/16 14:11:19;;;;;;;9.65;8.65;;;;;;;20.15;89.89;99416.63;1673619;85;21797;-57
2022/09/16 14:14:31;;;;;;;9.80;8.80;;;;;;;20.00;89.78;99420.61;1645396;87;21221;-57
2022/09/16 14:17:52;;;;;;;11.20;10.00;;;;;;;19.87;89.79;99426.56;1679322;84;21291;-57
2022/09/16 14:21:20;;;;;;;11.25;9.98;;;;;;;19.79;89.84;99417.86;1675790;84;21204;-56
2022/09/16 14:24:28;;;;;;;10.08;9.08;;;;;;;19.78;90.02;99413.38;1676866;85;21467;-57
2022/09/16 14:27:39;;;;;;;10.43;9.33;;;;;;;19.79;90.12;99417.29;1662633;85;21387;-56
2022/09/16 14:30:59;;;;;;;12.93;10.80;;;;;;;19.81;90.21;99412.86;1674694;85;21249;-56
2022/09/16 14:34:09;;;;;;;9.95;8.95;;;;;;;19.81;90.17;99421.20;1676264;85;21253;-56
2022/09/16 14:37:21;;;;;;;11.53;10.32;;;;;;;19.80;90.29;99417.60;1676611;85;21234;-57
2022/09/16 14:40:28;;;;;;;11.28;9.93;;;;;;;19.80;90.37;99418.14;1636061;86;21301;-57
2022/09/16 14:43:35;;;;;;;15.53;11.93;;;;;;;19.79;90.46;99417.29;1648406;87;21297;-57
2022/09/16 14:46:42;;;;;;;18.17;15.60;;;;;;;19.74;90.36;99416.41;1650588;87;21797;-55
2022/09/16 14:49:47;;;;;;;16.15;13.85;;;;;;;19.67;90.35;99418.52;1619899;88;21610;-57
2022/09/16 14:53:08;;;;;;;18.98;14.78;;;;;;;19.61;90.31;99416.78;1626382;87;21594;-56
2022/09/16 14:56:24;;;;;;;15.35;13.75;;;;;;;19.55;90.32;99412.27;1669744;85;21802;-56
2022/09/16 14:59:34;;;;;;;13.85;12.05;;;;;;;19.51;90.34;99412.47;1657439;85;21216;-57
2022/09/16 15:02:51;;;;;;;12.95;11.53;;;;;;;19.45;90.26;99409.34;1677108;85;21196;-56
2022/09/16 15:05:58;;;;;;;11.80;10.60;;;;;;;19.40;90.33;99411.50;1671979;85;21250;-56
2022/09/16 15:09:17;;;;;;;15.40;12.93;;;;;;;19.37;90.40;99416.72;1671572;84;21236;-56
2022/09/16 15:12:47;;;;;;;15.40;11.95;;;;;;;19.31;90.38;99406.92;1672858;85;21276;-56